createdAt,value
2023-04-26T00:01:05.617Z,11.75
2023-04-26T00:03:33.011Z,10.10
2023-04-26T00:06:05.516Z,4.90
2023-04-26T00:08:32.004Z,14.65
2023-04-26T00:10:58.396Z,8.10
2023-04-26T00:13:25.044Z,8.52
2023-04-26T00:15:51.663Z,10.70
2023-04-26T00:18:18.256Z,8.20
2023-04-26T00:20:44.694Z,7.65
2023-04-26T00:23:11.089Z,7.32
2023-04-26T00:25:37.780Z,8.57
2023-04-26T00:28:04.454Z,9.90
2023-04-26T00:30:31.012Z,11.43
2023-04-26T00:32:57.468Z,5.70
2023-04-26T00:35:23.980Z,14.13
2023-04-26T00:37:50.707Z,6.15
2023-04-26T00:40:17.284Z,12.70
2023-04-26T00:42:43.742Z,12.20
2023-04-26T00:45:10.176Z,8.05
2023-04-26T00:47:36.702Z,7.85
2023-04-26T00:50:04.528Z,12.57
2023-04-26T00:52:31.029Z,8.05
2023-04-26T00:54:57.668Z,9.05
2023-04-26T00:57:24.098Z,4.80
2023-04-26T00:59:50.481Z,6.80
2023-04-26T01:02:17.596Z,8.70
2023-04-26T01:04:45.279Z,9.02
2023-04-26T01:07:11.930Z,6.90
2023-04-26T01:09:38.406Z,10.60
2023-04-26T01:12:05.411Z,10.10
2023-04-26T01:14:31.938Z,9.15
2023-04-26T01:16:58.432Z,12.63
2023-04-26T01:19:25.618Z,14.82
2023-04-26T01:21:52.084Z,12.27
2023-04-26T01:24:18.492Z,16.33
2023-04-26T01:26:46.502Z,10.73
2023-04-26T01:29:16.655Z,11.18
2023-04-26T01:31:43.329Z,7.15
2023-04-26T01:34:09.881Z,7.60
2023-04-26T01:36:36.339Z,6.97
2023-04-26T01:39:02.774Z,9.60
2023-04-26T01:41:29.177Z,9.35
2023-04-26T01:43:55.695Z,8.32
2023-04-26T01:46:22.493Z,11.52
2023-04-26T01:48:48.945Z,7.20
2023-04-26T01:51:15.344Z,10.45
2023-04-26T01:53:41.797Z,9.43
2023-04-26T01:56:08.229Z,14.93
2023-04-26T01:58:34.597Z,15.68
2023-04-26T02:01:08.857Z,8.88
2023-04-26T02:03:35.948Z,11.13
2023-04-26T02:06:02.833Z,7.25
2023-04-26T02:08:29.932Z,12.77
2023-04-26T02:10:56.375Z,13.23
2023-04-26T02:13:22.772Z,11.35
2023-04-26T02:15:49.991Z,10.23
2023-04-26T02:18:17.607Z,9.73
2023-04-26T02:20:45.655Z,9.90
2023-04-26T02:23:12.611Z,19.05
2023-04-26T02:25:39.175Z,11.60
2023-04-26T02:28:05.827Z,12.57
2023-04-26T02:30:32.227Z,6.93
2023-04-26T02:32:58.886Z,12.73
2023-04-26T02:35:25.636Z,10.68
2023-04-26T02:37:55.081Z,9.32
2023-04-26T02:40:21.611Z,10.88
2023-04-26T02:42:49.009Z,10.35
2023-04-26T02:45:15.442Z,8.63
2023-04-26T02:47:41.849Z,8.43
2023-04-26T02:50:09.125Z,12.23
2023-04-26T02:52:36.339Z,11.88
2023-04-26T02:55:06.495Z,12.52
2023-04-26T02:57:34.027Z,7.53
2023-04-26T03:00:01.164Z,5.13
2023-04-26T03:02:27.854Z,10.70
2023-04-26T03:04:55.892Z,10.23
2023-04-26T03:07:22.444Z,15.85
2023-04-26T03:09:48.896Z,11.43
2023-04-26T03:12:15.309Z,18.58
2023-04-26T03:14:41.808Z,12.90
2023-04-26T03:17:08.351Z,14.25
2023-04-26T03:19:34.742Z,13.15
2023-04-26T03:22:01.280Z,11.10
2023-04-26T03:24:27.723Z,17.40
2023-04-26T03:26:54.122Z,31.42
2023-04-26T03:29:20.515Z,11.23
2023-04-26T03:31:47.075Z,12.05
2023-04-26T03:34:13.450Z,17.45
2023-04-26T03:36:39.895Z,13.70
2023-04-26T03:39:06.381Z,12.32
2023-04-26T03:41:33.570Z,12.38
2023-04-26T03:44:00.009Z,10.52
2023-04-26T03:46:26.458Z,13.52
2023-04-26T03:48:53.267Z,13.13
2023-04-26T03:51:19.889Z,12.70
2023-04-26T03:53:48.571Z,15.32
2023-04-26T03:56:14.964Z,21.55
2023-04-26T03:58:42.094Z,15.52
2023-04-26T04:01:08.650Z,12.85
2023-04-26T04:03:35.827Z,12.27
2023-04-26T04:06:04.029Z,14.00
2023-04-26T04:08:30.549Z,15.95
2023-04-26T04:10:56.944Z,18.05
2023-04-26T04:13:23.336Z,14.82
2023-04-26T04:15:49.764Z,14.75
2023-04-26T04:18:16.304Z,14.27
2023-04-26T04:20:42.717Z,14.13
2023-04-26T04:23:09.867Z,16.48
2023-04-26T04:25:36.578Z,14.57
2023-04-26T04:28:03.590Z,11.57
2023-04-26T04:30:30.638Z,14.68
2023-04-26T04:32:59.172Z,17.35
2023-04-26T04:35:28.872Z,14.55
2023-04-26T04:37:58.975Z,17.10
2023-04-26T04:40:26.184Z,18.20
2023-04-26T04:42:53.419Z,16.83
2023-04-26T04:45:20.185Z,20.40
2023-04-26T04:47:46.620Z,19.77
2023-04-26T04:50:13.231Z,18.08
2023-04-26T04:52:39.631Z,22.63
2023-04-26T04:55:06.278Z,16.33
2023-04-26T04:57:32.650Z,17.45
2023-04-26T04:59:59.319Z,20.45
2023-04-26T05:02:26.016Z,26.48
2023-04-26T05:04:52.718Z,19.92
2023-04-26T05:07:19.235Z,23.02
2023-04-26T05:09:45.625Z,22.02
2023-04-26T05:12:12.072Z,25.58
2023-04-26T05:14:38.626Z,27.70
2023-04-26T05:17:05.046Z,28.83
2023-04-26T05:19:31.943Z,27.80
2023-04-26T05:21:59.134Z,30.50
2023-04-26T05:24:25.518Z,30.77
2023-04-26T05:26:51.931Z,24.25
2023-04-26T05:29:18.655Z,26.48
2023-04-26T05:31:45.122Z,31.00
2023-04-26T05:34:11.558Z,27.10
2023-04-26T05:36:38.083Z,33.05
2023-04-26T05:39:05.766Z,25.40
2023-04-26T05:41:32.174Z,29.50
2023-04-26T05:43:58.553Z,29.63
2023-04-26T05:46:25.077Z,24.20
2023-04-26T05:48:51.894Z,26.60
2023-04-26T05:51:18.315Z,24.27
2023-04-26T05:53:44.705Z,30.77
2023-04-26T05:56:11.083Z,27.33
2023-04-26T05:58:37.548Z,33.60
2023-04-26T06:01:03.972Z,28.00
2023-04-26T06:03:30.960Z,27.33
2023-04-26T06:05:59.186Z,26.23
2023-04-26T06:08:28.223Z,29.58
2023-04-26T06:10:54.632Z,28.60
2023-04-26T06:13:21.023Z,32.53
2023-04-26T06:15:47.473Z,37.55
2023-04-26T06:18:14.052Z,28.55
2023-04-26T06:20:41.002Z,23.02
2023-04-26T06:23:07.704Z,27.40
2023-04-26T06:25:34.215Z,24.10
2023-04-26T06:28:00.875Z,23.75
2023-04-26T06:30:27.365Z,24.80
2023-04-26T06:32:54.133Z,24.58
2023-04-26T06:35:23.279Z,22.23
2023-04-26T06:37:49.682Z,23.85
2023-04-26T06:40:16.473Z,23.70
2023-04-26T06:42:43.395Z,23.95
2023-04-26T06:45:10.612Z,18.05
2023-04-26T06:47:37.596Z,20.38
2023-04-26T06:50:04.877Z,23.17
2023-04-26T06:52:31.330Z,14.93
2023-04-26T06:55:00.942Z,20.02
2023-04-26T06:57:27.377Z,22.48
2023-04-26T06:59:53.773Z,21.30
2023-04-26T07:02:20.334Z,20.17
2023-04-26T07:04:47.009Z,18.75
2023-04-26T07:07:14.459Z,21.42
2023-04-26T07:09:41.005Z,16.35
2023-04-26T07:12:07.508Z,17.50
2023-04-26T07:14:37.130Z,14.95
2023-04-26T07:17:04.967Z,19.00
2023-04-26T07:19:31.358Z,21.60
2023-04-26T07:21:57.762Z,21.15
2023-04-26T07:24:24.158Z,20.75
2023-04-26T07:26:50.544Z,16.17
2023-04-26T07:29:18.773Z,18.77
2023-04-26T07:31:46.000Z,8.65
2023-04-26T07:34:13.000Z,11.77
2023-04-26T07:36:39.415Z,9.25
2023-04-26T07:39:06.506Z,10.70
2023-04-26T07:41:32.905Z,10.57
2023-04-26T07:43:59.399Z,10.80
2023-04-26T07:46:25.924Z,16.52
2023-04-26T07:48:52.389Z,8.75
2023-04-26T07:51:18.842Z,9.63
2023-04-26T07:53:45.243Z,12.55
2023-04-26T07:56:11.670Z,8.27
2023-04-26T07:58:39.519Z,4.82
2023-04-26T08:01:06.158Z,10.80
2023-04-26T08:03:32.985Z,6.20
2023-04-26T08:05:59.834Z,10.98
2023-04-26T08:08:26.920Z,13.02
2023-04-26T08:10:53.625Z,9.98
2023-04-26T08:13:20.423Z,11.68
2023-04-26T08:15:47.832Z,11.30
2023-04-26T08:18:14.293Z,10.82
2023-04-26T08:20:41.024Z,6.68
2023-04-26T08:23:07.400Z,9.35
2023-04-26T08:25:36.612Z,9.32
2023-04-26T08:28:03.074Z,10.02
2023-04-26T08:30:29.600Z,8.32
2023-04-26T08:32:56.581Z,7.10
2023-04-26T08:35:23.268Z,6.25
2023-04-26T08:37:49.697Z,6.95
2023-04-26T08:40:22.181Z,12.68
2023-04-26T08:42:48.717Z,13.85
2023-04-26T08:45:16.221Z,9.48
2023-04-26T08:47:50.186Z,6.45
2023-04-26T08:50:20.027Z,3.10
2023-04-26T08:52:48.578Z,5.47
2023-04-26T08:55:18.496Z,10.13
2023-04-26T08:57:49.173Z,7.00
2023-04-26T09:00:17.003Z,10.30
2023-04-26T09:02:51.050Z,9.80
2023-04-26T09:05:18.112Z,7.22
2023-04-26T09:07:45.697Z,6.45
2023-04-26T09:10:13.472Z,2.78
2023-04-26T09:12:40.642Z,6.25
2023-04-26T09:15:07.654Z,8.15
2023-04-26T09:17:38.896Z,6.18
2023-04-26T09:20:23.663Z,7.77
2023-04-26T09:22:53.134Z,9.07
2023-04-26T09:25:27.771Z,8.65
2023-04-26T09:27:54.325Z,6.45
2023-04-26T09:30:22.047Z,6.03
2023-04-26T09:32:48.412Z,6.80
2023-04-26T09:35:33.337Z,5.03
2023-04-26T09:38:13.854Z,7.55
2023-04-26T09:40:51.113Z,7.20
2023-04-26T09:43:18.208Z,8.80
2023-04-26T09:45:49.369Z,7.30
2023-04-26T09:48:18.124Z,9.32
2023-04-26T09:50:48.613Z,5.78
2023-04-26T09:53:38.409Z,6.38
2023-04-26T09:56:15.902Z,7.78
2023-04-26T09:58:52.536Z,7.00
2023-04-26T10:01:19.730Z,7.47
2023-04-26T10:03:46.945Z,8.02
2023-04-26T10:06:13.725Z,3.78
2023-04-26T10:08:40.300Z,7.82
2023-04-26T10:11:12.873Z,4.72
2023-04-26T10:13:41.457Z,8.82
2023-04-26T10:16:09.699Z,4.28
2023-04-26T10:18:36.375Z,4.32
2023-04-26T10:21:07.655Z,3.25
2023-04-26T10:23:34.656Z,8.37
2023-04-26T10:26:01.161Z,10.27
2023-04-26T10:28:50.839Z,4.55
2023-04-26T10:31:19.995Z,4.88
2023-04-26T10:34:19.126Z,6.63
2023-04-26T10:37:08.425Z,6.00
2023-04-26T10:39:36.285Z,6.03
2023-04-26T10:42:24.717Z,9.55
2023-04-26T10:44:52.990Z,11.70
2023-04-26T10:47:25.350Z,6.35
2023-04-26T10:49:52.121Z,6.97
2023-04-26T10:52:20.395Z,7.43
2023-04-26T10:54:51.196Z,8.48
2023-04-26T10:57:17.988Z,5.97
2023-04-26T11:00:10.685Z,5.22
2023-04-26T11:02:51.864Z,9.80
2023-04-26T11:05:37.492Z,5.13
2023-04-26T11:08:25.686Z,7.72
2023-04-26T11:11:02.125Z,9.20
2023-04-26T11:13:37.918Z,7.07
2023-04-26T11:16:11.798Z,6.90
2023-04-26T11:18:41.814Z,5.75
2023-04-26T11:21:08.910Z,10.50
2023-04-26T11:23:36.408Z,5.82
2023-04-26T11:26:05.086Z,3.75
2023-04-26T11:28:34.051Z,4.80
2023-04-26T11:31:00.876Z,6.38
2023-04-26T11:33:27.556Z,4.68
2023-04-26T11:35:58.056Z,4.10
2023-04-26T11:38:25.576Z,5.60
2023-04-26T11:41:03.029Z,9.00
2023-04-26T11:43:39.364Z,12.68
2023-04-26T11:46:07.361Z,4.35
2023-04-26T11:48:35.876Z,3.60
2023-04-26T11:51:07.304Z,6.25
2023-04-26T11:53:38.757Z,5.60
2023-04-26T11:56:17.032Z,5.93
2023-04-26T11:58:53.137Z,7.45
2023-04-26T12:01:21.070Z,5.50
2023-04-26T12:03:54.117Z,5.53
2023-04-26T12:06:21.433Z,4.60
2023-04-26T12:08:51.905Z,6.38
2023-04-26T12:11:18.770Z,3.38
2023-04-26T12:13:46.584Z,3.78
2023-04-26T12:16:25.663Z,6.45
2023-04-26T12:18:54.618Z,3.40
2023-04-26T12:21:21.357Z,7.43
2023-04-26T12:23:48.913Z,4.72
2023-04-26T12:26:15.461Z,10.35
2023-04-26T12:28:42.089Z,8.88
2023-04-26T12:31:08.923Z,7.30
2023-04-26T12:33:36.041Z,4.85
2023-04-26T12:36:10.324Z,5.32
2023-04-26T12:38:37.239Z,7.68
2023-04-26T12:41:04.152Z,6.40
2023-04-26T12:43:30.648Z,3.63
2023-04-26T12:45:57.156Z,4.85
2023-04-26T12:48:23.817Z,4.78
2023-04-26T12:50:51.296Z,4.03
2023-04-26T12:53:18.516Z,6.20
2023-04-26T12:55:44.986Z,4.20
2023-04-26T12:58:11.644Z,8.30
2023-04-26T13:00:38.208Z,5.47
2023-04-26T13:03:04.812Z,4.07
2023-04-26T13:05:32.223Z,6.10
2023-04-26T13:08:00.366Z,3.55
2023-04-26T13:10:26.985Z,7.03
2023-04-26T13:12:53.874Z,3.72
2023-04-26T13:15:21.496Z,5.50
2023-04-26T13:17:47.926Z,5.05
2023-04-26T13:20:14.374Z,2.55
2023-04-26T13:22:42.438Z,3.83
2023-04-26T13:25:10.075Z,4.85
2023-04-26T13:27:36.829Z,6.80
2023-04-26T13:30:03.800Z,3.65
2023-04-26T13:32:30.191Z,6.07
2023-04-26T13:34:56.880Z,3.42
2023-04-26T13:37:23.778Z,5.53
2023-04-26T13:39:50.266Z,6.15
2023-04-26T13:42:18.224Z,2.65
2023-04-26T13:44:44.635Z,3.38
2023-04-26T13:47:11.165Z,7.57
2023-04-26T13:49:39.141Z,7.57
2023-04-26T13:52:05.734Z,4.80
2023-04-26T13:54:32.154Z,6.90
2023-04-26T13:56:58.864Z,11.05
2023-04-26T13:59:25.428Z,9.27
2023-04-26T14:01:54.280Z,6.80
2023-04-26T14:04:21.839Z,3.60
2023-04-26T14:06:48.366Z,6.38
2023-04-26T14:09:14.825Z,5.97
2023-04-26T14:11:41.267Z,3.47
2023-04-26T14:14:07.810Z,5.15
2023-04-26T14:16:34.242Z,3.72
2023-04-26T14:19:01.754Z,5.03
2023-04-26T14:21:28.184Z,6.35
2023-04-26T14:23:54.840Z,3.67
2023-04-26T14:26:21.525Z,8.23
2023-04-26T14:28:48.022Z,5.85
2023-04-26T14:31:14.581Z,4.95
2023-04-26T14:33:41.022Z,4.03
2023-04-26T14:36:08.331Z,4.68
2023-04-26T14:38:34.835Z,3.22
2023-04-26T14:41:01.548Z,7.45
2023-04-26T14:43:27.972Z,5.30
2023-04-26T14:45:55.561Z,8.00
2023-04-26T14:48:22.725Z,5.22
2023-04-26T14:50:49.100Z,5.38
2023-04-26T14:53:15.871Z,5.80
2023-04-26T14:55:42.254Z,7.15
2023-04-26T14:58:08.684Z,6.95
2023-04-26T15:00:35.057Z,6.40
2023-04-26T15:03:01.897Z,7.43
2023-04-26T15:05:28.425Z,7.95
2023-04-26T15:07:54.857Z,9.32
2023-04-26T15:10:21.279Z,5.00
2023-04-26T15:12:47.717Z,7.25
2023-04-26T15:15:15.313Z,4.18
2023-04-26T15:17:41.736Z,5.80
2023-04-26T15:20:09.480Z,4.95
2023-04-26T15:22:38.102Z,7.40
2023-04-26T15:25:06.161Z,10.65
2023-04-26T15:27:35.234Z,4.43
2023-04-26T15:30:03.572Z,4.82
2023-04-26T15:32:30.257Z,7.72
2023-04-26T15:34:56.856Z,8.35
2023-04-26T15:37:23.410Z,4.60
2023-04-26T15:39:49.809Z,4.60
2023-04-26T15:42:16.204Z,6.47
2023-04-26T15:44:42.575Z,5.32
2023-04-26T15:47:08.952Z,3.40
2023-04-26T15:49:35.394Z,6.22
2023-04-26T15:52:01.779Z,4.15
2023-04-26T15:54:28.223Z,5.20
2023-04-26T15:56:55.199Z,6.65
2023-04-26T15:59:21.591Z,6.10
2023-04-26T16:01:48.033Z,4.90
2023-04-26T16:04:14.748Z,5.75
2023-04-26T16:06:42.068Z,8.10
2023-04-26T16:09:23.837Z,5.50
2023-04-26T16:11:51.464Z,4.63
2023-04-26T16:14:17.861Z,8.38
2023-04-26T16:16:45.833Z,6.15
2023-04-26T16:19:12.413Z,6.72
2023-04-26T16:21:40.110Z,7.22
2023-04-26T16:24:08.775Z,6.35
2023-04-26T16:26:35.394Z,8.35
2023-04-26T16:29:01.816Z,8.25
2023-04-26T16:31:28.288Z,9.77
2023-04-26T16:33:54.697Z,5.53
2023-04-26T16:36:21.244Z,6.53
2023-04-26T16:38:47.644Z,5.82
2023-04-26T16:41:14.021Z,8.18
2023-04-26T16:43:40.583Z,6.55
2023-04-26T16:46:07.908Z,5.22
2023-04-26T16:48:35.452Z,7.15
2023-04-26T16:51:06.380Z,7.03
2023-04-26T16:53:33.762Z,7.93
2023-04-26T16:56:00.395Z,10.35
2023-04-26T16:58:26.836Z,10.18
2023-04-26T17:00:53.339Z,7.85
2023-04-26T17:03:20.103Z,7.07
2023-04-26T17:05:47.649Z,4.60
2023-04-26T17:08:14.879Z,4.88
2023-04-26T17:10:42.411Z,8.63
2023-04-26T17:13:09.017Z,7.90
2023-04-26T17:15:36.169Z,5.15
2023-04-26T17:18:04.361Z,4.85
2023-04-26T17:20:31.868Z,6.72
2023-04-26T17:22:59.060Z,6.57
2023-04-26T17:25:25.979Z,7.47
2023-04-26T17:27:52.606Z,7.45
2023-04-26T17:30:19.977Z,6.75
2023-04-26T17:32:46.490Z,7.38
2023-04-26T17:35:13.420Z,8.75
2023-04-26T17:37:41.841Z,5.93
2023-04-26T17:40:09.085Z,8.05
2023-04-26T17:42:35.629Z,7.22
2023-04-26T17:45:02.088Z,9.05
2023-04-26T17:47:28.864Z,6.55
2023-04-26T17:49:55.365Z,8.25
2023-04-26T17:52:21.803Z,7.88
2023-04-26T17:54:48.248Z,7.70
2023-04-26T17:57:17.749Z,6.20
2023-04-26T17:59:44.316Z,8.98
2023-04-26T18:02:10.757Z,7.35
2023-04-26T18:04:37.584Z,6.53
2023-04-26T18:07:04.441Z,6.95
2023-04-26T18:09:31.146Z,9.95
2023-04-26T18:11:57.529Z,6.70
2023-04-26T18:14:24.966Z,5.30
2023-04-26T18:16:51.503Z,5.53
2023-04-26T18:19:18.124Z,8.70
2023-04-26T18:21:44.511Z,10.82
2023-04-26T18:24:11.242Z,7.60
2023-04-26T18:26:39.211Z,9.15
2023-04-26T18:29:07.427Z,16.23
2023-04-26T18:31:34.071Z,9.77
2023-04-26T18:34:00.655Z,10.85
2023-04-26T18:36:27.193Z,6.90
2023-04-26T18:38:54.193Z,9.50
2023-04-26T18:41:21.231Z,7.65
2023-04-26T18:43:47.620Z,9.43
2023-04-26T18:46:14.026Z,9.85
2023-04-26T18:48:40.431Z,8.75
2023-04-26T18:51:06.901Z,8.25
2023-04-26T18:53:33.307Z,10.18
2023-04-26T18:55:59.838Z,13.65
2023-04-26T18:58:26.208Z,9.10
2023-04-26T19:00:53.404Z,11.35
2023-04-26T19:03:20.127Z,12.30
2023-04-26T19:05:46.874Z,7.32
2023-04-26T19:08:13.329Z,9.25
2023-04-26T19:10:39.713Z,8.48
2023-04-26T19:13:06.312Z,14.88
2023-04-26T19:15:32.710Z,7.55
2023-04-26T19:17:59.141Z,13.45
2023-04-26T19:20:26.700Z,7.13
2023-04-26T19:22:53.245Z,13.18
2023-04-26T19:25:23.009Z,8.77
2023-04-26T19:27:50.131Z,10.63
2023-04-26T19:30:16.522Z,9.95
2023-04-26T19:32:42.937Z,6.50
2023-04-26T19:35:09.751Z,14.23
2023-04-26T19:37:36.369Z,6.97
2023-04-26T19:40:05.942Z,9.75
2023-04-26T19:42:32.396Z,12.05
2023-04-26T19:44:58.796Z,8.48
2023-04-26T19:47:25.271Z,7.90
2023-04-26T19:49:52.994Z,10.48
2023-04-26T19:52:19.733Z,7.22
2023-04-26T19:54:46.223Z,7.95
2023-04-26T19:57:12.594Z,8.13
2023-04-26T19:59:38.973Z,9.23
2023-04-26T20:02:06.630Z,12.20
2023-04-26T20:04:33.300Z,9.93
2023-04-26T20:06:59.741Z,8.23
2023-04-26T20:09:26.272Z,7.55
2023-04-26T20:11:53.108Z,9.40
2023-04-26T20:14:19.515Z,7.55
2023-04-26T20:16:45.971Z,9.35
2023-04-26T20:19:12.441Z,9.63
2023-04-26T20:21:38.844Z,10.40
2023-04-26T20:24:05.609Z,8.48
2023-04-26T20:26:32.008Z,7.65
2023-04-26T20:28:58.401Z,9.07
2023-04-26T20:31:24.865Z,13.25
2023-04-26T20:33:51.422Z,8.20
2023-04-26T20:36:18.129Z,13.23
2023-04-26T20:38:44.595Z,10.77
2023-04-26T20:41:10.983Z,11.13
2023-04-26T20:43:37.430Z,12.05
2023-04-26T20:46:03.894Z,12.65
2023-04-26T20:48:30.417Z,13.57
2023-04-26T20:50:58.679Z,9.10
2023-04-26T20:53:25.113Z,11.48
2023-04-26T20:55:52.855Z,10.10
2023-04-26T20:58:19.354Z,7.90
2023-04-26T21:00:48.909Z,9.88
2023-04-26T21:03:15.453Z,10.32
2023-04-26T21:05:41.882Z,9.32
2023-04-26T21:08:08.299Z,10.60
2023-04-26T21:10:34.738Z,11.48
2023-04-26T21:13:01.176Z,14.77
2023-04-26T21:15:27.643Z,11.95
2023-04-26T21:17:54.185Z,9.77
2023-04-26T21:20:20.614Z,15.63
2023-04-26T21:22:47.007Z,11.73
2023-04-26T21:25:16.802Z,13.15
2023-04-26T21:27:43.332Z,10.38
2023-04-26T21:30:11.179Z,18.02
2023-04-26T21:32:40.130Z,11.32
2023-04-26T21:35:07.505Z,9.73
2023-04-26T21:37:33.897Z,8.95
2023-04-26T21:40:00.428Z,15.00
2023-04-26T21:42:27.568Z,13.52
2023-04-26T21:44:53.927Z,19.42
2023-04-26T21:47:20.352Z,16.42
2023-04-26T21:49:46.736Z,15.68
2023-04-26T21:52:13.186Z,24.85
2023-04-26T21:54:39.637Z,17.23
2023-04-26T21:57:06.736Z,17.55
2023-04-26T21:59:33.603Z,17.20
2023-04-26T22:02:00.121Z,14.25
2023-04-26T22:04:26.665Z,14.55
2023-04-26T22:06:53.115Z,14.48
2023-04-26T22:09:20.885Z,12.43
2023-04-26T22:11:47.340Z,15.05
2023-04-26T22:14:14.024Z,10.23
2023-04-26T22:16:40.469Z,12.25
2023-04-26T22:19:06.899Z,11.77
2023-04-26T22:21:33.303Z,15.45
2023-04-26T22:23:59.867Z,15.63
2023-04-26T22:26:26.711Z,14.18
2023-04-26T22:28:53.126Z,12.35
2023-04-26T22:31:19.612Z,12.05
2023-04-26T22:33:46.262Z,15.18
2023-04-26T22:36:13.084Z,14.40
2023-04-26T22:38:39.737Z,10.48
2023-04-26T22:41:07.174Z,14.82
2023-04-26T22:43:34.384Z,20.23
2023-04-26T22:46:01.016Z,13.95
2023-04-26T22:48:27.525Z,11.18
2023-04-26T22:50:53.957Z,13.95
2023-04-26T22:53:21.362Z,14.57
2023-04-26T22:55:47.807Z,10.80
2023-04-26T22:58:14.207Z,13.90
2023-04-26T23:00:40.575Z,14.80
2023-04-26T23:03:07.007Z,12.40
2023-04-26T23:05:33.418Z,11.88
2023-04-26T23:07:59.805Z,15.40
2023-04-26T23:10:26.283Z,16.63
2023-04-26T23:12:52.886Z,14.07
2023-04-26T23:15:19.463Z,11.88
2023-04-26T23:17:46.532Z,14.48
2023-04-26T23:20:13.057Z,12.18
2023-04-26T23:22:40.865Z,13.15
2023-04-26T23:25:08.731Z,13.02
2023-04-26T23:27:35.339Z,14.60
2023-04-26T23:30:01.755Z,11.43
2023-04-26T23:32:28.262Z,13.48
2023-04-26T23:34:54.712Z,12.25
2023-04-26T23:37:21.297Z,13.52
2023-04-26T23:39:47.678Z,15.20
2023-04-26T23:42:14.063Z,15.52
2023-04-26T23:44:40.659Z,14.00
2023-04-26T23:47:07.030Z,10.45
2023-04-26T23:49:33.410Z,17.20
2023-04-26T23:51:59.852Z,14.45
2023-04-26T23:54:26.625Z,13.65
2023-04-26T23:56:53.044Z,14.27
2023-04-26T23:59:19.456Z,11.73
